sensor_id;sensor_type;location;lat;lon;timestamp;P1;durP1;ratioP1;P2;durP2;ratioP2
22460;SDS011;11397;48.410;11.468;2022-10-03T00:04:45;8.38;;;8.07;;
22460;SDS011;11397;48.410;11.468;2022-10-03T00:09:54;8.52;;;8.23;;
22460;SDS011;11397;48.410;11.468;2022-10-03T00:15:02;8.43;;;8.13;;
22460;SDS011;11397;48.410;11.468;2022-10-03T00:20:07;9.73;;;9.35;;
22460;SDS011;11397;48.410;11.468;2022-10-03T00:25:17;8.63;;;8.32;;
22460;SDS011;11397;48.410;11.468;2022-10-03T00:30:22;8.52;;;8.23;;
22460;SDS011;11397;48.410;11.468;2022-10-03T00:35:28;8.68;;;8.38;;
22460;SDS011;11397;48.410;11.468;2022-10-03T00:40:43;8.85;;;8.55;;
22460;SDS011;11397;48.410;11.468;2022-10-03T00:51:09;8.93;;;8.63;;
22460;SDS011;11397;48.410;11.468;2022-10-03T00:56:25;8.30;;;8.00;;
22460;SDS011;11397;48.410;11.468;2022-10-03T01:01:32;8.85;;;8.55;;
22460;SDS011;11397;48.410;11.468;2022-10-03T01:06:38;9.50;;;9.18;;
22460;SDS011;11397;48.410;11.468;2022-10-03T01:11:45;8.20;;;7.90;;
22460;SDS011;11397;48.410;11.468;2022-10-03T01:16:55;8.25;;;7.95;;
22460;SDS011;11397;48.410;11.468;2022-10-03T01:22:06;9.15;;;8.85;;
22460;SDS011;11397;48.410;11.468;2022-10-03T01:27:13;8.80;;;8.50;;
22460;SDS011;11397;48.410;11.468;2022-10-03T01:32:18;8.80;;;8.50;;
22460;SDS011;11397;48.410;11.468;2022-10-03T01:37:22;8.85;;;8.55;;
22460;SDS011;11397;48.410;11.468;2022-10-03T01:42:32;9.15;;;8.85;;
22460;SDS011;11397;48.410;11.468;2022-10-03T01:47:38;8.63;;;8.32;;
22460;SDS011;11397;48.410;11.468;2022-10-03T01:52:40;9.20;;;8.90;;
22460;SDS011;11397;48.410;11.468;2022-10-03T01:57:43;8.73;;;8.43;;
22460;SDS011;11397;48.410;11.468;2022-10-03T02:02:49;8.85;;;8.55;;
22460;SDS011;11397;48.410;11.468;2022-10-03T02:07:54;9.18;;;8.88;;
22460;SDS011;11397;48.410;11.468;2022-10-03T02:12:59;8.85;;;8.55;;
22460;SDS011;11397;48.410;11.468;2022-10-03T02:18:08;7.65;;;7.35;;
22460;SDS011;11397;48.410;11.468;2022-10-03T02:28:38;7.90;;;7.60;;
22460;SDS011;11397;48.410;11.468;2022-10-03T02:33:56;9.52;;;9.20;;
22460;SDS011;11397;48.410;11.468;2022-10-03T02:44:30;8.32;;;8.02;;
22460;SDS011;11397;48.410;11.468;2022-10-03T02:55:13;8.65;;;8.35;;
22460;SDS011;11397;48.410;11.468;2022-10-03T03:00:27;8.63;;;8.32;;
22460;SDS011;11397;48.410;11.468;2022-10-03T03:21:37;8.65;;;8.35;;
22460;SDS011;11397;48.410;11.468;2022-10-03T03:26:53;8.85;;;8.55;;
22460;SDS011;11397;48.410;11.468;2022-10-03T03:31:56;8.50;;;8.20;;
22460;SDS011;11397;48.410;11.468;2022-10-03T03:37:05;8.07;;;7.78;;
22460;SDS011;11397;48.410;11.468;2022-10-03T03:42:14;7.40;;;7.13;;
22460;SDS011;11397;48.410;11.468;2022-10-03T03:47:33;8.57;;;8.27;;
22460;SDS011;11397;48.410;11.468;2022-10-03T03:52:42;9.25;;;8.95;;
22460;SDS011;11397;48.410;11.468;2022-10-03T03:57:55;8.15;;;7.85;;
22460;SDS011;11397;48.410;11.468;2022-10-03T04:03:09;8.93;;;8.63;;
22460;SDS011;11397;48.410;11.468;2022-10-03T04:08:21;8.70;;;8.40;;
22460;SDS011;11397;48.410;11.468;2022-10-03T04:13:33;8.52;;;8.23;;
22460;SDS011;11397;48.410;11.468;2022-10-03T04:18:44;9.52;;;9.20;;
22460;SDS011;11397;48.410;11.468;2022-10-03T04:24:11;8.13;;;7.82;;
22460;SDS011;11397;48.410;11.468;2022-10-03T04:29:28;8.65;;;8.35;;
22460;SDS011;11397;48.410;11.468;2022-10-03T04:34:33;8.57;;;8.27;;
22460;SDS011;11397;48.410;11.468;2022-10-03T04:39:43;8.13;;;7.82;;
22460;SDS011;11397;48.410;11.468;2022-10-03T04:44:48;8.20;;;7.90;;
22460;SDS011;11397;48.410;11.468;2022-10-03T04:49:59;8.02;;;7.72;;
22460;SDS011;11397;48.410;11.468;2022-10-03T04:55:04;9.05;;;8.75;;
22460;SDS011;11397;48.410;11.468;2022-10-03T05:00:14;9.07;;;8.77;;
22460;SDS011;11397;48.410;11.468;2022-10-03T05:10:49;8.48;;;8.18;;
22460;SDS011;11397;48.410;11.468;2022-10-03T05:15:54;8.43;;;8.13;;
22460;SDS011;11397;48.410;11.468;2022-10-03T05:20:57;9.52;;;9.23;;
22460;SDS011;11397;48.410;11.468;2022-10-03T05:26:03;8.73;;;8.43;;
22460;SDS011;11397;48.410;11.468;2022-10-03T05:31:13;9.32;;;9.02;;
22460;SDS011;11397;48.410;11.468;2022-10-03T05:36:24;9.18;;;8.88;;
22460;SDS011;11397;48.410;11.468;2022-10-03T05:41:29;8.85;;;8.55;;
22460;SDS011;11397;48.410;11.468;2022-10-03T05:46:39;9.10;;;8.80;;
22460;SDS011;11397;48.410;11.468;2022-10-03T05:51:48;9.00;;;8.70;;
22460;SDS011;11397;48.410;11.468;2022-10-03T06:07:43;7.85;;;7.55;;
22460;SDS011;11397;48.410;11.468;2022-10-03T06:12:48;8.80;;;8.50;;
22460;SDS011;11397;48.410;11.468;2022-10-03T06:17:55;8.88;;;8.57;;
22460;SDS011;11397;48.410;11.468;2022-10-03T06:28:43;8.27;;;7.97;;
22460;SDS011;11397;48.410;11.468;2022-10-03T06:34:00;9.32;;;9.02;;
22460;SDS011;11397;48.410;11.468;2022-10-03T06:39:14;8.55;;;8.25;;
22460;SDS011;11397;48.410;11.468;2022-10-03T06:44:28;8.90;;;8.60;;
22460;SDS011;11397;48.410;11.468;2022-10-03T06:55:08;8.65;;;8.35;;
22460;SDS011;11397;48.410;11.468;2022-10-03T07:00:16;9.25;;;8.95;;
22460;SDS011;11397;48.410;11.468;2022-10-03T07:10:45;7.90;;;7.60;;
22460;SDS011;11397;48.410;11.468;2022-10-03T07:16:06;8.65;;;8.35;;
22460;SDS011;11397;48.410;11.468;2022-10-03T07:21:18;8.13;;;7.82;;
22460;SDS011;11397;48.410;11.468;2022-10-03T07:26:29;8.27;;;7.97;;
22460;SDS011;11397;48.410;11.468;2022-10-03T07:31:41;7.38;;;7.10;;
22460;SDS011;11397;48.410;11.468;2022-10-03T07:36:59;8.18;;;7.88;;
22460;SDS011;11397;48.410;11.468;2022-10-03T07:47:51;8.10;;;7.80;;
22460;SDS011;11397;48.410;11.468;2022-10-03T07:53:06;8.25;;;7.95;;
22460;SDS011;11397;48.410;11.468;2022-10-03T07:58:17;7.90;;;7.60;;
22460;SDS011;11397;48.410;11.468;2022-10-03T08:03:31;7.68;;;7.38;;
22460;SDS011;11397;48.410;11.468;2022-10-03T08:14:13;8.18;;;7.88;;
22460;SDS011;11397;48.410;11.468;2022-10-03T08:19:25;8.77;;;8.48;;
22460;SDS011;11397;48.410;11.468;2022-10-03T08:24:36;7.88;;;7.57;;
22460;SDS011;11397;48.410;11.468;2022-10-03T08:29:56;8.13;;;7.82;;
22460;SDS011;11397;48.410;11.468;2022-10-03T08:56:37;7.57;;;7.28;;
22460;SDS011;11397;48.410;11.468;2022-10-03T09:01:48;7.97;;;7.68;;
22460;SDS011;11397;48.410;11.468;2022-10-03T09:07:01;8.75;;;8.45;;
22460;SDS011;11397;48.410;11.468;2022-10-03T09:12:11;8.25;;;7.95;;
22460;SDS011;11397;48.410;11.468;2022-10-03T09:28:27;7.85;;;7.55;;
22460;SDS011;11397;48.410;11.468;2022-10-03T09:39:07;8.45;;;8.15;;
22460;SDS011;11397;48.410;11.468;2022-10-03T09:49:35;7.80;;;7.50;;
22460;SDS011;11397;48.410;11.468;2022-10-03T10:05:38;8.00;;;7.70;;
22460;SDS011;11397;48.410;11.468;2022-10-03T10:10:58;8.15;;;7.85;;
22460;SDS011;11397;48.410;11.468;2022-10-03T10:16:13;8.85;;;8.55;;
22460;SDS011;11397;48.410;11.468;2022-10-03T10:27:01;8.27;;;7.97;;
22460;SDS011;11397;48.410;11.468;2022-10-03T10:32:16;8.55;;;8.25;;
22460;SDS011;11397;48.410;11.468;2022-10-03T10:54:04;8.15;;;7.85;;
22460;SDS011;11397;48.410;11.468;2022-10-03T11:05:02;8.48;;;8.18;;
22460;SDS011;11397;48.410;11.468;2022-10-03T11:36:57;8.18;;;7.88;;
22460;SDS011;11397;48.410;11.468;2022-10-03T11:42:05;7.95;;;7.65;;
22460;SDS011;11397;48.410;11.468;2022-10-03T11:47:27;6.80;;;6.60;;
22460;SDS011;11397;48.410;11.468;2022-10-03T11:52:37;6.75;;;6.55;;
22460;SDS011;11397;48.410;11.468;2022-10-03T11:57:42;7.15;;;6.95;;
22460;SDS011;11397;48.410;11.468;2022-10-03T12:02:56;7.78;;;7.47;;
22460;SDS011;11397;48.410;11.468;2022-10-03T12:08:05;7.90;;;7.60;;
22460;SDS011;11397;48.410;11.468;2022-10-03T12:13:28;7.22;;;7.03;;
22460;SDS011;11397;48.410;11.468;2022-10-03T12:18:47;7.70;;;7.40;;
22460;SDS011;11397;48.410;11.468;2022-10-03T12:23:59;8.15;;;7.85;;
22460;SDS011;11397;48.410;11.468;2022-10-03T12:29:03;7.32;;;7.10;;
22460;SDS011;11397;48.410;11.468;2022-10-03T12:34:12;7.55;;;7.25;;
22460;SDS011;11397;48.410;11.468;2022-10-03T12:39:23;6.97;;;6.78;;
22460;SDS011;11397;48.410;11.468;2022-10-03T12:44:33;7.05;;;6.85;;
22460;SDS011;11397;48.410;11.468;2022-10-03T12:49:40;7.03;;;6.82;;
22460;SDS011;11397;48.410;11.468;2022-10-03T12:54:48;7.65;;;7.35;;
22460;SDS011;11397;48.410;11.468;2022-10-03T12:59:53;7.95;;;7.65;;
22460;SDS011;11397;48.410;11.468;2022-10-03T13:05:18;7.70;;;7.40;;
22460;SDS011;11397;48.410;11.468;2022-10-03T13:10:28;7.80;;;7.50;;
22460;SDS011;11397;48.410;11.468;2022-10-03T13:15:51;7.30;;;7.05;;
22460;SDS011;11397;48.410;11.468;2022-10-03T13:21:03;7.20;;;7.00;;
22460;SDS011;11397;48.410;11.468;2022-10-03T13:26:11;7.82;;;7.53;;
22460;SDS011;11397;48.410;11.468;2022-10-03T13:31:14;7.63;;;7.32;;
22460;SDS011;11397;48.410;11.468;2022-10-03T13:36:19;7.50;;;7.20;;
22460;SDS011;11397;48.410;11.468;2022-10-03T13:41:25;6.50;;;6.30;;
22460;SDS011;11397;48.410;11.468;2022-10-03T13:46:29;6.72;;;6.53;;
22460;SDS011;11397;48.410;11.468;2022-10-03T13:51:33;7.05;;;6.75;;
22460;SDS011;11397;48.410;11.468;2022-10-03T13:56:48;7.38;;;7.10;;
22460;SDS011;11397;48.410;11.468;2022-10-03T14:01:53;6.80;;;6.60;;
22460;SDS011;11397;48.410;11.468;2022-10-03T14:07:00;7.30;;;7.10;;
22460;SDS011;11397;48.410;11.468;2022-10-03T14:12:08;7.00;;;6.80;;
22460;SDS011;11397;48.410;11.468;2022-10-03T14:17:13;7.05;;;6.85;;
22460;SDS011;11397;48.410;11.468;2022-10-03T14:22:27;7.07;;;6.88;;
22460;SDS011;11397;48.410;11.468;2022-10-03T14:27:36;7.72;;;7.43;;
22460;SDS011;11397;48.410;11.468;2022-10-03T14:32:43;7.32;;;7.07;;
22460;SDS011;11397;48.410;11.468;2022-10-03T14:37:48;7.10;;;6.90;;
22460;SDS011;11397;48.410;11.468;2022-10-03T14:43:06;7.45;;;7.15;;
22460;SDS011;11397;48.410;11.468;2022-10-03T14:48:15;7.35;;;7.10;;
22460;SDS011;11397;48.410;11.468;2022-10-03T14:53:18;7.43;;;7.13;;
22460;SDS011;11397;48.410;11.468;2022-10-03T14:58:22;7.45;;;7.15;;
22460;SDS011;11397;48.410;11.468;2022-10-03T15:03:29;7.55;;;7.25;;
22460;SDS011;11397;48.410;11.468;2022-10-03T15:08:34;7.30;;;7.07;;
22460;SDS011;11397;48.410;11.468;2022-10-03T15:13:41;7.25;;;7.05;;
22460;SDS011;11397;48.410;11.468;2022-10-03T15:18:49;7.57;;;7.28;;
22460;SDS011;11397;48.410;11.468;2022-10-03T15:23:53;6.78;;;6.57;;
22460;SDS011;11397;48.410;11.468;2022-10-03T15:28:57;8.35;;;8.05;;
22460;SDS011;11397;48.410;11.468;2022-10-03T15:34:04;7.30;;;7.07;;
22460;SDS011;11397;48.410;11.468;2022-10-03T15:39:14;8.07;;;7.78;;
22460;SDS011;11397;48.410;11.468;2022-10-03T15:44:19;7.70;;;7.40;;
22460;SDS011;11397;48.410;11.468;2022-10-03T15:49:23;7.60;;;7.30;;
22460;SDS011;11397;48.410;11.468;2022-10-03T15:54:29;8.57;;;8.27;;
22460;SDS011;11397;48.410;11.468;2022-10-03T15:59:39;7.63;;;7.32;;
22460;SDS011;11397;48.410;11.468;2022-10-03T16:04:44;7.40;;;7.13;;
22460;SDS011;11397;48.410;11.468;2022-10-03T16:09:49;8.10;;;7.80;;
22460;SDS011;11397;48.410;11.468;2022-10-03T16:14:55;8.23;;;7.93;;
22460;SDS011;11397;48.410;11.468;2022-10-03T16:19:59;8.30;;;8.00;;
22460;SDS011;11397;48.410;11.468;2022-10-03T16:25:04;7.60;;;7.30;;
22460;SDS011;11397;48.410;11.468;2022-10-03T16:30:15;7.95;;;7.65;;
22460;SDS011;11397;48.410;11.468;2022-10-03T16:35:22;8.57;;;8.27;;
22460;SDS011;11397;48.410;11.468;2022-10-03T16:40:26;8.07;;;7.78;;
22460;SDS011;11397;48.410;11.468;2022-10-03T16:45:31;8.43;;;8.13;;
22460;SDS011;11397;48.410;11.468;2022-10-03T16:50:34;8.38;;;8.07;;
22460;SDS011;11397;48.410;11.468;2022-10-03T16:55:39;8.32;;;8.02;;
22460;SDS011;11397;48.410;11.468;2022-10-03T17:00:49;8.68;;;8.38;;
22460;SDS011;11397;48.410;11.468;2022-10-03T17:05:52;8.18;;;7.88;;
22460;SDS011;11397;48.410;11.468;2022-10-03T17:10:55;8.40;;;8.10;;
22460;SDS011;11397;48.410;11.468;2022-10-03T17:16:00;8.55;;;8.25;;
22460;SDS011;11397;48.410;11.468;2022-10-03T17:21:05;9.15;;;8.85;;
22460;SDS011;11397;48.410;11.468;2022-10-03T17:26:11;8.85;;;8.55;;
22460;SDS011;11397;48.410;11.468;2022-10-03T17:31:24;8.85;;;8.55;;
22460;SDS011;11397;48.410;11.468;2022-10-03T17:36:42;8.00;;;7.70;;
22460;SDS011;11397;48.410;11.468;2022-10-03T17:41:51;8.85;;;8.55;;
22460;SDS011;11397;48.410;11.468;2022-10-03T17:46:56;7.78;;;7.47;;
22460;SDS011;11397;48.410;11.468;2022-10-03T17:51:59;7.80;;;7.50;;
22460;SDS011;11397;48.410;11.468;2022-10-03T17:57:02;7.68;;;7.38;;
22460;SDS011;11397;48.410;11.468;2022-10-03T18:02:12;8.18;;;7.88;;
22460;SDS011;11397;48.410;11.468;2022-10-03T18:07:16;8.38;;;8.07;;
22460;SDS011;11397;48.410;11.468;2022-10-03T18:12:20;7.95;;;7.65;;
22460;SDS011;11397;48.410;11.468;2022-10-03T18:17:27;8.07;;;7.78;;
22460;SDS011;11397;48.410;11.468;2022-10-03T18:22:31;7.97;;;7.68;;
22460;SDS011;11397;48.410;11.468;2022-10-03T18:27:43;8.07;;;7.78;;
22460;SDS011;11397;48.410;11.468;2022-10-03T18:32:52;8.48;;;8.18;;
22460;SDS011;11397;48.410;11.468;2022-10-03T18:38:04;7.15;;;6.95;;
22460;SDS011;11397;48.410;11.468;2022-10-03T18:43:14;8.10;;;7.80;;
22460;SDS011;11397;48.410;11.468;2022-10-03T18:48:25;7.63;;;7.32;;
22460;SDS011;11397;48.410;11.468;2022-10-03T18:53:30;6.68;;;6.47;;
22460;SDS011;11397;48.410;11.468;2022-10-03T18:58:34;7.65;;;7.35;;
22460;SDS011;11397;48.410;11.468;2022-10-03T19:03:40;7.93;;;7.63;;
22460;SDS011;11397;48.410;11.468;2022-10-03T19:08:45;7.32;;;7.07;;
22460;SDS011;11397;48.410;11.468;2022-10-03T19:13:53;7.93;;;7.63;;
22460;SDS011;11397;48.410;11.468;2022-10-03T19:19:02;8.40;;;8.10;;
22460;SDS011;11397;48.410;11.468;2022-10-03T19:24:05;8.68;;;8.38;;
22460;SDS011;11397;48.410;11.468;2022-10-03T19:29:12;8.45;;;8.15;;
22460;SDS011;11397;48.410;11.468;2022-10-03T19:34:17;8.05;;;7.75;;
22460;SDS011;11397;48.410;11.468;2022-10-03T19:39:20;8.15;;;7.85;;
22460;SDS011;11397;48.410;11.468;2022-10-03T19:44:22;8.13;;;7.82;;
22460;SDS011;11397;48.410;11.468;2022-10-03T19:49:27;9.90;;;9.50;;
22460;SDS011;11397;48.410;11.468;2022-10-03T19:54:32;8.63;;;8.32;;
22460;SDS011;11397;48.410;11.468;2022-10-03T19:59:35;8.63;;;8.32;;
22460;SDS011;11397;48.410;11.468;2022-10-03T20:04:39;8.05;;;7.75;;
22460;SDS011;11397;48.410;11.468;2022-10-03T20:09:43;8.55;;;8.25;;
22460;SDS011;11397;48.410;11.468;2022-10-03T20:14:45;9.00;;;8.70;;
22460;SDS011;11397;48.410;11.468;2022-10-03T20:19:52;8.70;;;8.40;;
22460;SDS011;11397;48.410;11.468;2022-10-03T20:24:55;8.80;;;8.50;;
22460;SDS011;11397;48.410;11.468;2022-10-03T20:30:00;8.45;;;8.15;;
22460;SDS011;11397;48.410;11.468;2022-10-03T20:35:05;9.40;;;9.10;;
22460;SDS011;11397;48.410;11.468;2022-10-03T20:40:11;8.82;;;8.52;;
22460;SDS011;11397;48.410;11.468;2022-10-03T20:45:16;9.32;;;9.02;;
22460;SDS011;11397;48.410;11.468;2022-10-03T20:50:26;8.68;;;8.38;;
22460;SDS011;11397;48.410;11.468;2022-10-03T20:55:33;8.93;;;8.63;;
22460;SDS011;11397;48.410;11.468;2022-10-03T21:00:41;8.65;;;8.35;;
22460;SDS011;11397;48.410;11.468;2022-10-03T21:05:46;7.93;;;7.63;;
22460;SDS011;11397;48.410;11.468;2022-10-03T21:10:49;7.80;;;7.50;;
22460;SDS011;11397;48.410;11.468;2022-10-03T21:15:54;8.90;;;8.60;;
22460;SDS011;11397;48.410;11.468;2022-10-03T21:21:00;8.88;;;8.57;;
22460;SDS011;11397;48.410;11.468;2022-10-03T21:26:03;7.72;;;7.43;;
22460;SDS011;11397;48.410;11.468;2022-10-03T21:31:20;8.85;;;8.55;;
22460;SDS011;11397;48.410;11.468;2022-10-03T21:36:25;8.55;;;8.25;;
22460;SDS011;11397;48.410;11.468;2022-10-03T21:41:32;9.05;;;8.75;;
22460;SDS011;11397;48.410;11.468;2022-10-03T21:46:37;9.15;;;8.85;;
22460;SDS011;11397;48.410;11.468;2022-10-03T21:51:43;9.20;;;8.90;;
22460;SDS011;11397;48.410;11.468;2022-10-03T21:56:50;9.23;;;8.93;;
22460;SDS011;11397;48.410;11.468;2022-10-03T22:01:56;8.48;;;8.18;;
22460;SDS011;11397;48.410;11.468;2022-10-03T22:07:04;8.35;;;8.05;;
22460;SDS011;11397;48.410;11.468;2022-10-03T22:12:07;8.98;;;8.68;;
22460;SDS011;11397;48.410;11.468;2022-10-03T22:17:14;8.85;;;8.55;;
22460;SDS011;11397;48.410;11.468;2022-10-03T22:22:34;9.30;;;9.00;;
22460;SDS011;11397;48.410;11.468;2022-10-03T22:27:41;8.70;;;8.40;;
22460;SDS011;11397;48.410;11.468;2022-10-03T22:32:45;9.32;;;9.02;;
22460;SDS011;11397;48.410;11.468;2022-10-03T22:37:51;9.23;;;8.93;;
22460;SDS011;11397;48.410;11.468;2022-10-03T22:42:55;9.10;;;8.80;;
22460;SDS011;11397;48.410;11.468;2022-10-03T22:47:58;9.10;;;8.80;;
22460;SDS011;11397;48.410;11.468;2022-10-03T22:53:04;8.50;;;8.20;;
22460;SDS011;11397;48.410;11.468;2022-10-03T22:58:06;8.30;;;8.00;;
22460;SDS011;11397;48.410;11.468;2022-10-03T23:03:12;8.30;;;8.00;;
22460;SDS011;11397;48.410;11.468;2022-10-03T23:08:19;7.53;;;7.22;;
22460;SDS011;11397;48.410;11.468;2022-10-03T23:13:31;8.25;;;7.95;;
22460;SDS011;11397;48.410;11.468;2022-10-03T23:24:01;8.90;;;8.60;;
22460;SDS011;11397;48.410;11.468;2022-10-03T23:29:05;8.05;;;7.75;;
22460;SDS011;11397;48.410;11.468;2022-10-03T23:34:06;8.57;;;8.27;;
22460;SDS011;11397;48.410;11.468;2022-10-03T23:39:10;8.60;;;8.30;;
22460;SDS011;11397;48.410;11.468;2022-10-03T23:44:35;8.30;;;8.00;;
22460;SDS011;11397;48.410;11.468;2022-10-03T23:49:37;8.20;;;7.90;;
22460;SDS011;11397;48.410;11.468;2022-10-03T23:54:40;8.70;;;8.40;;
22460;SDS011;11397;48.410;11.468;2022-10-03T23:59:42;8.10;;;7.80;;
